createdAt,value
2018-08-11T00:01:53.641Z,97705.00
2018-08-11T00:04:23.967Z,97705.00
2018-08-11T00:06:54.366Z,97704.00
2018-08-11T00:09:24.918Z,97702.00
2018-08-11T00:11:55.219Z,97707.00
2018-08-11T00:14:25.746Z,97707.00
2018-08-11T00:16:56.270Z,97701.00
2018-08-11T00:19:26.574Z,97701.00
2018-08-11T00:21:57.095Z,97698.00
2018-08-11T00:24:27.632Z,97705.00
2018-08-11T00:26:58.280Z,97708.00
2018-08-11T00:29:28.734Z,97705.00
2018-08-11T00:31:58.933Z,97703.00
2018-08-11T00:34:29.595Z,97708.00
2018-08-11T00:37:00.174Z,97704.00
2018-08-11T00:39:30.609Z,97707.00
2018-08-11T00:42:01.090Z,97710.00
2018-08-11T00:44:31.606Z,97708.00
2018-08-11T00:47:01.878Z,97704.00
2018-08-11T00:49:32.434Z,97711.00
2018-08-11T00:52:02.947Z,97715.00
2018-08-11T00:54:33.444Z,97710.00
2018-08-11T00:57:03.865Z,97715.00
2018-08-11T00:59:34.694Z,97713.00
2018-08-11T01:02:05.198Z,97709.00
2018-08-11T01:04:35.718Z,97712.00
2018-08-11T01:07:06.343Z,97707.00
2018-08-11T01:09:36.695Z,97706.00
2018-08-11T01:12:07.044Z,97701.00
2018-08-11T01:14:37.441Z,97700.00
2018-08-11T01:17:07.931Z,97704.00
2018-08-11T01:19:38.350Z,97703.00
2018-08-11T01:22:09.213Z,97703.00
2018-08-11T01:24:39.656Z,97703.00
2018-08-11T01:27:10.222Z,97709.00
2018-08-11T01:29:40.660Z,97706.00
2018-08-11T01:32:11.298Z,97705.00
2018-08-11T01:34:41.706Z,97703.00
2018-08-11T01:37:12.406Z,97703.00
2018-08-11T01:39:42.986Z,97707.00
2018-08-11T01:42:13.490Z,97702.00
2018-08-11T01:44:44.059Z,97706.00
2018-08-11T01:47:14.416Z,97710.00
2018-08-11T01:49:45.136Z,97711.00
2018-08-11T01:52:15.451Z,97713.00
2018-08-11T01:54:45.790Z,97715.00
2018-08-11T01:57:16.317Z,97717.00
2018-08-11T01:59:46.794Z,97715.00
2018-08-11T02:02:17.251Z,97713.00
2018-08-11T02:04:47.851Z,97713.00
2018-08-11T02:07:18.257Z,97714.00
2018-08-11T02:09:48.771Z,97709.00
2018-08-11T02:12:19.093Z,97713.00
2018-08-11T02:14:49.561Z,97709.00
2018-08-11T02:17:19.987Z,97710.00
2018-08-11T02:19:50.502Z,97709.00
2018-08-11T02:22:20.788Z,97710.00
2018-08-11T02:24:51.188Z,97714.00
2018-08-11T02:27:21.558Z,97712.00
2018-08-11T02:29:51.976Z,97713.00
2018-08-11T02:32:22.422Z,97717.00
2018-08-11T02:34:52.842Z,97714.00
2018-08-11T02:37:23.147Z,97715.00
2018-08-11T02:39:53.739Z,97714.00
2018-08-11T02:42:24.156Z,97714.00
2018-08-11T02:44:54.652Z,97719.00
2018-08-11T02:47:25.038Z,97729.00
2018-08-11T02:49:55.361Z,97723.00
2018-08-11T02:52:25.646Z,97728.00
2018-08-11T02:54:56.090Z,97728.00
2018-08-11T02:57:26.393Z,97729.00
2018-08-11T02:59:56.764Z,97728.00
2018-08-11T03:02:27.148Z,97725.00
2018-08-11T03:04:57.671Z,97725.00
2018-08-11T03:07:28.032Z,97726.00
2018-08-11T03:09:58.531Z,97730.00
2018-08-11T03:12:29.114Z,97733.00
2018-08-11T03:14:59.465Z,97733.00
2018-08-11T03:17:29.891Z,97735.00
2018-08-11T03:20:00.294Z,97739.00
2018-08-11T03:22:30.596Z,97733.00
2018-08-11T03:25:01.250Z,97735.00
2018-08-11T03:27:31.625Z,97738.00
2018-08-11T03:30:01.948Z,97737.00
2018-08-11T03:32:32.666Z,97734.00
2018-08-11T03:35:03.265Z,97744.00
2018-08-11T03:37:33.987Z,97751.00
2018-08-11T03:40:05.087Z,97750.00
2018-08-11T03:42:35.698Z,97753.00
2018-08-11T03:45:06.304Z,97758.00
2018-08-11T03:47:36.732Z,97759.00
2018-08-11T03:50:07.673Z,97763.00
2018-08-11T03:52:38.485Z,97765.00
2018-08-11T03:55:09.011Z,97768.00
2018-08-11T03:57:39.515Z,97769.00
2018-08-11T04:00:12.000Z,97775.00
2018-08-11T04:02:42.341Z,97776.00
2018-08-11T04:05:12.807Z,97776.00
2018-08-11T04:07:43.440Z,97782.00
2018-08-11T04:10:13.870Z,97781.00
2018-08-11T04:12:44.269Z,97779.00
2018-08-11T04:15:14.526Z,97780.00
2018-08-11T04:17:44.973Z,97786.00
2018-08-11T04:20:15.190Z,97791.00
2018-08-11T04:22:45.538Z,97790.00
2018-08-11T04:25:15.901Z,97788.00
2018-08-11T04:27:46.355Z,97783.00
2018-08-11T04:30:16.699Z,97783.00
2018-08-11T04:32:46.949Z,97788.00
2018-08-11T04:35:17.478Z,97790.00
2018-08-11T04:37:47.762Z,97787.00
2018-08-11T04:40:18.202Z,97794.00
2018-08-11T04:42:48.557Z,97792.00
2018-08-11T04:45:19.165Z,97798.00
2018-08-11T04:47:49.540Z,97806.00
2018-08-11T04:50:19.878Z,97805.00
2018-08-11T04:52:50.289Z,97810.00
2018-08-11T04:55:20.710Z,97809.00
2018-08-11T04:57:51.238Z,97815.00
2018-08-11T05:00:21.635Z,97816.00
2018-08-11T05:02:51.874Z,97821.00
2018-08-11T05:05:22.643Z,97827.00
2018-08-11T05:07:53.032Z,97830.00
2018-08-11T05:10:23.428Z,97827.00
2018-08-11T05:12:53.735Z,97828.00
2018-08-11T05:15:24.039Z,97830.00
2018-08-11T05:17:54.121Z,97830.00
2018-08-11T05:20:24.518Z,97832.00
2018-08-11T05:22:54.932Z,97830.00
2018-08-11T05:25:25.431Z,97835.00
2018-08-11T05:27:55.765Z,97828.00
2018-08-11T05:30:26.219Z,97833.00
2018-08-11T05:32:56.619Z,97832.00
2018-08-11T05:35:27.107Z,97838.00
2018-08-11T05:37:57.756Z,97840.00
2018-08-11T05:40:28.054Z,97840.00
2018-08-11T05:42:58.391Z,97844.00
2018-08-11T05:45:28.826Z,97844.00
2018-08-11T05:47:59.520Z,97847.00
2018-08-11T05:50:30.094Z,97844.00
2018-08-11T05:53:00.613Z,97851.00
2018-08-11T05:55:31.160Z,97850.00
2018-08-11T05:58:01.691Z,97855.00
2018-08-11T06:00:32.188Z,97855.00
2018-08-11T06:03:02.644Z,97857.00
2018-08-11T06:05:33.170Z,97862.00
2018-08-11T06:08:03.693Z,97867.00
2018-08-11T06:10:34.103Z,97866.00
2018-08-11T06:13:04.544Z,97865.00
2018-08-11T06:15:35.041Z,97859.00
2018-08-11T06:18:05.427Z,97859.00
2018-08-11T06:20:35.879Z,97865.00
2018-08-11T06:23:06.707Z,97857.00
2018-08-11T06:25:37.201Z,97858.00
2018-08-11T06:28:07.615Z,97859.00
2018-08-11T06:30:37.954Z,97863.00
2018-08-11T06:33:08.586Z,97859.00
2018-08-11T06:35:38.918Z,97860.00
2018-08-11T06:38:09.365Z,97861.00
2018-08-11T06:40:40.424Z,97858.00
2018-08-11T06:43:10.865Z,97859.00
2018-08-11T06:45:41.799Z,97854.00
2018-08-11T06:48:12.425Z,97859.00
2018-08-11T06:50:42.724Z,97866.00
2018-08-11T06:53:13.342Z,97867.00
2018-08-11T06:55:43.762Z,97862.00
2018-08-11T06:58:14.332Z,97864.00
2018-08-11T07:00:44.642Z,97861.00
2018-08-11T07:03:15.145Z,97860.00
2018-08-11T07:05:45.688Z,97859.00
2018-08-11T07:08:16.130Z,97862.00
2018-08-11T07:10:46.505Z,97860.00
2018-08-11T07:13:16.884Z,97855.00
2018-08-11T07:15:47.275Z,97862.00
2018-08-11T07:18:17.512Z,97862.00
2018-08-11T07:20:47.945Z,97852.00
2018-08-11T07:23:18.392Z,97855.00
2018-08-11T07:25:48.768Z,97852.00
2018-08-11T07:28:19.225Z,97864.00
2018-08-11T07:30:49.636Z,97857.00
2018-08-11T07:33:20.124Z,97860.00
2018-08-11T07:35:50.478Z,97853.00
2018-08-11T07:38:20.920Z,97855.00
2018-08-11T07:40:51.500Z,97853.00
2018-08-11T07:43:21.916Z,97856.00
2018-08-11T07:45:52.571Z,97860.00
2018-08-11T07:48:22.980Z,97851.00
2018-08-11T07:50:53.423Z,97852.00
2018-08-11T07:53:24.083Z,97851.00
2018-08-11T07:55:54.554Z,97853.00
2018-08-11T07:58:24.849Z,97852.00
2018-08-11T08:00:55.249Z,97846.00
2018-08-11T08:03:25.637Z,97854.00
2018-08-11T08:05:56.044Z,97853.00
2018-08-11T08:08:26.293Z,97849.00
2018-08-11T08:10:56.763Z,97854.00
2018-08-11T08:13:27.221Z,97848.00
2018-08-11T08:15:57.517Z,97847.00
2018-08-11T08:18:28.011Z,97841.00
2018-08-11T08:20:58.416Z,97840.00
2018-08-11T08:23:28.794Z,97837.00
2018-08-11T08:25:59.185Z,97840.00
2018-08-11T08:28:29.547Z,97840.00
2018-08-11T08:30:59.998Z,97840.00
2018-08-11T08:33:30.550Z,97839.00
2018-08-11T08:36:01.371Z,97839.00
2018-08-11T08:38:31.788Z,97840.00
2018-08-11T08:41:02.190Z,97845.00
2018-08-11T08:43:32.753Z,97842.00
2018-08-11T08:46:03.135Z,97842.00
2018-08-11T08:48:33.574Z,97838.00
2018-08-11T08:51:06.354Z,97842.00
2018-08-11T08:53:37.165Z,97836.00
2018-08-11T08:56:07.452Z,97832.00
2018-08-11T08:58:37.798Z,97831.00
2018-08-11T09:01:08.299Z,97829.00
2018-08-11T09:03:38.762Z,97823.00
2018-08-11T09:06:09.122Z,97832.00
2018-08-11T09:08:39.377Z,97827.00
2018-08-11T09:11:09.742Z,97828.00
2018-08-11T09:13:40.268Z,97827.00
2018-08-11T09:16:10.769Z,97820.00
2018-08-11T09:18:41.114Z,97817.00
2018-08-11T09:21:12.058Z,97814.00
2018-08-11T09:23:42.462Z,97814.00
2018-08-11T09:26:12.907Z,97808.00
2018-08-11T09:28:43.290Z,97805.00
2018-08-11T09:31:13.683Z,97802.00
2018-08-11T09:33:44.326Z,97805.00
2018-08-11T09:36:14.783Z,97803.00
2018-08-11T09:38:45.141Z,97800.00
2018-08-11T09:41:15.531Z,97809.00
2018-08-11T09:43:46.357Z,97797.00
2018-08-11T09:46:16.652Z,97797.00
2018-08-11T09:48:46.977Z,97794.00
2018-08-11T09:51:17.670Z,97792.00
2018-08-11T09:53:48.058Z,97793.00
2018-08-11T09:56:18.628Z,97788.00
2018-08-11T09:58:49.045Z,97782.00
2018-08-11T10:01:24.180Z,97781.00
2018-08-11T10:03:54.649Z,97786.00
2018-08-11T10:06:25.082Z,97780.00
2018-08-11T10:08:55.487Z,97781.00
2018-08-11T10:11:26.100Z,97776.00
2018-08-11T10:13:56.466Z,97778.00
2018-08-11T10:16:26.931Z,97777.00
2018-08-11T10:18:57.326Z,97768.00
2018-08-11T10:21:27.741Z,97766.00
2018-08-11T10:23:58.208Z,97767.00
2018-08-11T10:26:28.809Z,97763.00
2018-08-11T10:28:59.206Z,97767.00
2018-08-11T10:31:29.746Z,97762.00
2018-08-11T10:34:00.103Z,97755.00
2018-08-11T10:36:30.417Z,97764.00
2018-08-11T10:39:01.028Z,97757.00
2018-08-11T10:41:31.458Z,97758.00
2018-08-11T10:44:01.754Z,97755.00
2018-08-11T10:46:32.330Z,97755.00
2018-08-11T10:49:02.666Z,97752.00
2018-08-11T10:51:32.909Z,97751.00
2018-08-11T10:54:03.342Z,97742.00
2018-08-11T10:56:33.993Z,97754.00
2018-08-11T10:59:04.463Z,97741.00
2018-08-11T11:01:34.927Z,97743.00
2018-08-11T11:04:05.394Z,97742.00
2018-08-11T11:06:35.953Z,97740.00
2018-08-11T11:09:08.970Z,97746.00
2018-08-11T11:11:39.579Z,97742.00
2018-08-11T11:14:10.153Z,97743.00
2018-08-11T11:16:40.498Z,97739.00
2018-08-11T11:19:10.840Z,97735.00
2018-08-11T11:21:41.287Z,97742.00
2018-08-11T11:24:12.111Z,97747.00
2018-08-11T11:26:42.581Z,97735.00
2018-08-11T11:29:13.083Z,97730.00
2018-08-11T11:31:44.051Z,97732.00
2018-08-11T11:34:15.011Z,97738.00
2018-08-11T11:36:45.366Z,97738.00
2018-08-11T11:39:15.930Z,97732.00
2018-08-11T11:41:46.335Z,97732.00
2018-08-11T11:44:16.809Z,97737.00
2018-08-11T11:46:47.141Z,97734.00
2018-08-11T11:49:17.480Z,97731.00
2018-08-11T11:51:47.914Z,97730.00
2018-08-11T11:54:18.402Z,97724.00
2018-08-11T11:56:48.803Z,97726.00
2018-08-11T11:59:19.296Z,97729.00
2018-08-11T12:01:49.670Z,97723.00
2018-08-11T12:04:20.267Z,97716.00
2018-08-11T12:06:50.539Z,97721.00
2018-08-11T12:09:21.052Z,97713.00
2018-08-11T12:11:51.650Z,97712.00
2018-08-11T12:14:22.201Z,97712.00
2018-08-11T12:16:52.534Z,97710.00
2018-08-11T12:19:22.887Z,97704.00
2018-08-11T12:21:53.434Z,97699.00
2018-08-11T12:24:24.034Z,97704.00
2018-08-11T12:26:54.456Z,97700.00
2018-08-11T12:29:25.013Z,97688.00
2018-08-11T12:31:55.518Z,97687.00
2018-08-11T12:34:25.782Z,97684.00
2018-08-11T12:36:56.275Z,97677.00
2018-08-11T12:39:26.690Z,97675.00
2018-08-11T12:41:57.258Z,97666.00
2018-08-11T12:44:27.801Z,97659.00
2018-08-11T12:46:58.041Z,97660.00
2018-08-11T12:49:28.575Z,97664.00
2018-08-11T12:51:59.144Z,97659.00
2018-08-11T12:54:29.428Z,97654.00
2018-08-11T12:56:59.878Z,97649.00
2018-08-11T12:59:30.214Z,97645.00
2018-08-11T13:02:00.526Z,97645.00
2018-08-11T13:04:30.885Z,97648.00
2018-08-11T13:07:01.336Z,97638.00
2018-08-11T13:09:31.805Z,97643.00
2018-08-11T13:12:02.267Z,97642.00
2018-08-11T13:14:32.603Z,97640.00
2018-08-11T13:17:03.211Z,97635.00
2018-08-11T13:19:33.466Z,97633.00
2018-08-11T13:22:03.818Z,97631.00
2018-08-11T13:24:34.216Z,97635.00
2018-08-11T13:27:04.403Z,97630.00
2018-08-11T13:29:34.846Z,97628.00
2018-08-11T13:32:05.372Z,97627.00
2018-08-11T13:34:35.904Z,97631.00
2018-08-11T13:37:06.522Z,97621.00
2018-08-11T13:39:36.930Z,97613.00
2018-08-11T13:42:07.491Z,97614.00
2018-08-11T13:44:37.942Z,97607.00
2018-08-11T13:47:08.464Z,97608.00
2018-08-11T13:49:38.915Z,97606.00
2018-08-11T13:52:11.558Z,97602.00
2018-08-11T13:54:41.965Z,97594.00
2018-08-11T13:57:12.495Z,97605.00
2018-08-11T13:59:43.125Z,97606.00
2018-08-11T14:02:13.968Z,97602.00
2018-08-11T14:04:44.427Z,97596.00
2018-08-11T14:07:14.888Z,97594.00
2018-08-11T14:09:45.214Z,97600.00
2018-08-11T14:12:15.843Z,97592.00
2018-08-11T14:14:46.339Z,97587.00
2018-08-11T14:17:16.827Z,97583.00
2018-08-11T14:19:47.274Z,97578.00
2018-08-11T14:22:17.605Z,97577.00
2018-08-11T14:24:47.882Z,97573.00
2018-08-11T14:27:18.364Z,97563.00
2018-08-11T14:29:48.741Z,97564.00
2018-08-11T14:32:19.110Z,97563.00
2018-08-11T14:34:49.355Z,97556.00
2018-08-11T14:37:19.670Z,97551.00
2018-08-11T14:39:50.281Z,97548.00
2018-08-11T14:42:20.635Z,97547.00
2018-08-11T14:44:50.978Z,97540.00
2018-08-11T14:47:21.395Z,97544.00
2018-08-11T14:49:52.714Z,97538.00
2018-08-11T14:52:23.011Z,97533.00
2018-08-11T14:54:53.235Z,97529.00
2018-08-11T14:57:23.702Z,97524.00
2018-08-11T14:59:54.063Z,97526.00
2018-08-11T15:02:24.554Z,97526.00
2018-08-11T15:04:55.117Z,97527.00
2018-08-11T15:07:25.558Z,97533.00
2018-08-11T15:09:55.958Z,97527.00
2018-08-11T15:12:26.471Z,97525.00
2018-08-11T15:14:56.936Z,97528.00
2018-08-11T15:17:27.190Z,97522.00
2018-08-11T15:19:57.586Z,97528.00
2018-08-11T15:22:27.891Z,97526.00
2018-08-11T15:24:58.205Z,97514.00
2018-08-11T15:27:28.551Z,97514.00
2018-08-11T15:29:59.053Z,97510.00
2018-08-11T15:32:29.418Z,97503.00
2018-08-11T15:34:59.894Z,97508.00
2018-08-11T15:37:30.269Z,97501.00
2018-08-11T15:40:00.702Z,97503.00
2018-08-11T15:42:30.999Z,97513.00
2018-08-11T15:45:01.279Z,97502.00
2018-08-11T15:47:31.723Z,97508.00
2018-08-11T15:50:01.977Z,97505.00
2018-08-11T15:52:32.450Z,97498.00
2018-08-11T15:55:02.842Z,97504.00
2018-08-11T15:57:33.308Z,97492.00
2018-08-11T16:00:03.903Z,97496.00
2018-08-11T16:02:34.180Z,97489.00
2018-08-11T16:05:04.653Z,97487.00
2018-08-11T16:07:35.237Z,97491.00
2018-08-11T16:10:06.343Z,97493.00
2018-08-11T16:12:36.773Z,97499.00
2018-08-11T16:15:07.191Z,97491.00
2018-08-11T16:17:37.591Z,97491.00
2018-08-11T16:20:07.913Z,97494.00
2018-08-11T16:22:38.366Z,97488.00
2018-08-11T16:25:08.738Z,97486.00
2018-08-11T16:27:39.125Z,97486.00
2018-08-11T16:30:12.949Z,97487.00
2018-08-11T16:32:43.366Z,97489.00
2018-08-11T16:35:13.948Z,97485.00
2018-08-11T16:37:44.455Z,97480.00
2018-08-11T16:40:14.824Z,97488.00
2018-08-11T16:42:45.164Z,97483.00
2018-08-11T16:45:15.432Z,97482.00
2018-08-11T16:47:45.717Z,97482.00
2018-08-11T16:50:16.107Z,97484.00
2018-08-11T16:52:46.500Z,97480.00
2018-08-11T16:55:16.774Z,97484.00
2018-08-11T16:57:47.300Z,97478.00
2018-08-11T17:00:17.762Z,97476.00
2018-08-11T17:02:48.103Z,97480.00
2018-08-11T17:05:18.485Z,97474.00
2018-08-11T17:07:49.122Z,97472.00
2018-08-11T17:10:19.435Z,97473.00
2018-08-11T17:12:49.797Z,97477.00
2018-08-11T17:15:20.355Z,97473.00
2018-08-11T17:17:50.849Z,97479.00
2018-08-11T17:20:21.359Z,97475.00
2018-08-11T17:22:51.724Z,97472.00
2018-08-11T17:25:22.161Z,97473.00
2018-08-11T17:27:52.371Z,97473.00
2018-08-11T17:30:22.765Z,97471.00
2018-08-11T17:32:53.233Z,97471.00
2018-08-11T17:35:23.591Z,97467.00
2018-08-11T17:37:54.041Z,97471.00
2018-08-11T17:40:24.674Z,97470.00
2018-08-11T17:42:55.098Z,97473.00
2018-08-11T17:45:25.466Z,97470.00
2018-08-11T17:47:56.054Z,97480.00
2018-08-11T17:50:26.340Z,97483.00
2018-08-11T17:52:56.754Z,97479.00
2018-08-11T17:55:27.283Z,97487.00
2018-08-11T17:57:57.546Z,97480.00
2018-08-11T18:00:27.928Z,97480.00
2018-08-11T18:02:58.279Z,97479.00
2018-08-11T18:05:28.706Z,97479.00
2018-08-11T18:07:59.258Z,97477.00
2018-08-11T18:10:29.657Z,97482.00
2018-08-11T18:13:00.288Z,97480.00
2018-08-11T18:15:30.794Z,97478.00
2018-08-11T18:18:01.267Z,97474.00
2018-08-11T18:20:31.661Z,97478.00
2018-08-11T18:23:02.111Z,97488.00
2018-08-11T18:25:32.522Z,97487.00
2018-08-11T18:28:02.931Z,97488.00
2018-08-11T18:30:33.426Z,97490.00
2018-08-11T18:33:03.915Z,97485.00
2018-08-11T18:35:34.432Z,97488.00
2018-08-11T18:38:04.839Z,97491.00
2018-08-11T18:40:35.191Z,97495.00
2018-08-11T18:43:05.507Z,97499.00
2018-08-11T18:45:35.881Z,97500.00
2018-08-11T18:48:06.623Z,97496.00
2018-08-11T18:50:36.892Z,97502.00
2018-08-11T18:53:07.570Z,97498.00
2018-08-11T18:55:38.017Z,97501.00
2018-08-11T18:58:08.731Z,97500.00
2018-08-11T19:00:39.235Z,97504.00
2018-08-11T19:03:10.030Z,97508.00
2018-08-11T19:05:40.466Z,97511.00
2018-08-11T19:08:11.306Z,97504.00
2018-08-11T19:10:41.719Z,97508.00
2018-08-11T19:13:12.785Z,97507.00
2018-08-11T19:15:43.478Z,97509.00
2018-08-11T19:18:13.827Z,97514.00
2018-08-11T19:20:44.482Z,97514.00
2018-08-11T19:23:14.855Z,97516.00
2018-08-11T19:25:45.458Z,97521.00
2018-08-11T19:28:16.214Z,97519.00
2018-08-11T19:30:46.487Z,97525.00
2018-08-11T19:33:17.040Z,97521.00
2018-08-11T19:35:47.474Z,97517.00
2018-08-11T19:38:17.822Z,97515.00
2018-08-11T19:40:48.230Z,97517.00
2018-08-11T19:43:18.605Z,97516.00
2018-08-11T19:45:48.964Z,97527.00
2018-08-11T19:48:19.294Z,97523.00
2018-08-11T19:50:49.730Z,97523.00
2018-08-11T19:53:20.510Z,97520.00
2018-08-11T19:55:50.871Z,97516.00
2018-08-11T19:58:21.336Z,97518.00
2018-08-11T20:00:51.658Z,97520.00
2018-08-11T20:03:22.183Z,97521.00
2018-08-11T20:05:52.538Z,97523.00
2018-08-11T20:08:23.146Z,97523.00
2018-08-11T20:10:53.464Z,97522.00
2018-08-11T20:13:23.907Z,97525.00
2018-08-11T20:15:54.371Z,97528.00
2018-08-11T20:18:24.645Z,97526.00
2018-08-11T20:20:55.150Z,97530.00
2018-08-11T20:23:25.551Z,97533.00
2018-08-11T20:25:55.848Z,97534.00
2018-08-11T20:28:26.246Z,97534.00
2018-08-11T20:30:56.868Z,97537.00
2018-08-11T20:33:27.273Z,97533.00
2018-08-11T20:35:57.843Z,97533.00
2018-08-11T20:38:28.187Z,97535.00
2018-08-11T20:40:58.932Z,97534.00
2018-08-11T20:43:29.383Z,97537.00
2018-08-11T20:45:59.991Z,97537.00
2018-08-11T20:48:30.482Z,97536.00
2018-08-11T20:51:00.768Z,97540.00
2018-08-11T20:53:31.102Z,97542.00
2018-08-11T20:56:01.679Z,97541.00
2018-08-11T20:58:32.110Z,97546.00
2018-08-11T21:01:02.648Z,97541.00
2018-08-11T21:03:33.383Z,97539.00
2018-08-11T21:06:03.751Z,97540.00
2018-08-11T21:08:34.575Z,97539.00
2018-08-11T21:11:04.909Z,97541.00
2018-08-11T21:13:35.140Z,97535.00
2018-08-11T21:16:05.674Z,97536.00
2018-08-11T21:18:36.040Z,97534.00
2018-08-11T21:21:06.502Z,97535.00
2018-08-11T21:23:37.236Z,97537.00
2018-08-11T21:26:07.711Z,97539.00
2018-08-11T21:28:38.223Z,97543.00
2018-08-11T21:31:08.887Z,97545.00
2018-08-11T21:33:39.586Z,97552.00
2018-08-11T21:36:09.899Z,97550.00
2018-08-11T21:38:40.234Z,97550.00
2018-08-11T21:41:10.767Z,97549.00
2018-08-11T21:43:41.459Z,97542.00
2018-08-11T21:46:11.958Z,97544.00
2018-08-11T21:48:42.442Z,97545.00
2018-08-11T21:51:12.976Z,97547.00
2018-08-11T21:53:43.303Z,97545.00
2018-08-11T21:56:13.691Z,97554.00
2018-08-11T21:58:44.384Z,97547.00
2018-08-11T22:01:16.826Z,97542.00
2018-08-11T22:03:47.322Z,97541.00
2018-08-11T22:06:18.022Z,97543.00
2018-08-11T22:08:48.463Z,97545.00
2018-08-11T22:11:18.897Z,97541.00
2018-08-11T22:13:49.412Z,97540.00
2018-08-11T22:16:19.884Z,97541.00
2018-08-11T22:18:50.251Z,97531.00
2018-08-11T22:21:20.570Z,97530.00
2018-08-11T22:23:51.039Z,97530.00
2018-08-11T22:26:21.462Z,97528.00
2018-08-11T22:28:51.985Z,97525.00
2018-08-11T22:31:22.570Z,97528.00
2018-08-11T22:33:52.941Z,97528.00
2018-08-11T22:36:23.326Z,97526.00
2018-08-11T22:38:53.802Z,97521.00
2018-08-11T22:41:24.091Z,97521.00
2018-08-11T22:43:54.623Z,97516.00
2018-08-11T22:46:25.030Z,97512.00
2018-08-11T22:48:55.611Z,97515.00
2018-08-11T22:51:26.213Z,97514.00
2018-08-11T22:53:56.850Z,97515.00
2018-08-11T22:56:27.377Z,97515.00
2018-08-11T22:58:57.659Z,97510.00
2018-08-11T23:01:28.351Z,97516.00
2018-08-11T23:03:58.903Z,97506.00
2018-08-11T23:06:29.677Z,97506.00
2018-08-11T23:09:00.293Z,97498.00
2018-08-11T23:11:30.773Z,97497.00
2018-08-11T23:14:01.122Z,97498.00
2018-08-11T23:16:31.774Z,97497.00
2018-08-11T23:19:02.331Z,97494.00
2018-08-11T23:21:32.927Z,97490.00
2018-08-11T23:24:03.370Z,97491.00
2018-08-11T23:26:34.037Z,97489.00
2018-08-11T23:29:04.430Z,97490.00
2018-08-11T23:31:34.953Z,97497.00
2018-08-11T23:34:05.360Z,97496.00
2018-08-11T23:36:35.839Z,97494.00
2018-08-11T23:39:08.599Z,97491.00
2018-08-11T23:41:39.310Z,97492.00
2018-08-11T23:44:09.834Z,97499.00
2018-08-11T23:46:40.400Z,97493.00
2018-08-11T23:49:11.024Z,97493.00
2018-08-11T23:51:41.510Z,97495.00
2018-08-11T23:54:11.875Z,97494.00
2018-08-11T23:56:42.263Z,97495.00
2018-08-11T23:59:12.793Z,97484.00
